sensor_id;sensor_type;location;lat;lon;timestamp;P1;durP1;ratioP1;P2;durP2;ratioP2
13051;SDS011;6592;47.484;9.726;2024-02-23T00:02:06;0.22;;;0.00;;
13051;SDS011;6592;47.484;9.726;2024-02-23T00:04:33;0.05;;;0.00;;
13051;SDS011;6592;47.484;9.726;2024-02-23T00:07:02;0.00;;;0.00;;
13051;SDS011;6592;47.484;9.726;2024-02-23T00:09:30;1.27;;;0.00;;
13051;SDS011;6592;47.484;9.726;2024-02-23T00:12:00;0.00;;;0.00;;
13051;SDS011;6592;47.484;9.726;2024-02-23T00:14:28;0.00;;;0.00;;
13051;SDS011;6592;47.484;9.726;2024-02-23T00:16:58;0.00;;;0.00;;
13051;SDS011;6592;47.484;9.726;2024-02-23T00:19:29;0.10;;;0.00;;
13051;SDS011;6592;47.484;9.726;2024-02-23T00:21:58;0.10;;;0.00;;
13051;SDS011;6592;47.484;9.726;2024-02-23T00:24:26;0.00;;;0.00;;
13051;SDS011;6592;47.484;9.726;2024-02-23T00:26:55;0.10;;;0.00;;
13051;SDS011;6592;47.484;9.726;2024-02-23T00:29:25;0.10;;;0.00;;
13051;SDS011;6592;47.484;9.726;2024-02-23T00:31:53;0.00;;;0.00;;
13051;SDS011;6592;47.484;9.726;2024-02-23T00:34:21;0.38;;;0.00;;
13051;SDS011;6592;47.484;9.726;2024-02-23T00:36:50;0.00;;;0.00;;
13051;SDS011;6592;47.484;9.726;2024-02-23T00:39:19;0.00;;;0.00;;
13051;SDS011;6592;47.484;9.726;2024-02-23T00:41:47;0.20;;;0.00;;
13051;SDS011;6592;47.484;9.726;2024-02-23T00:44:15;0.00;;;0.00;;
13051;SDS011;6592;47.484;9.726;2024-02-23T00:46:45;0.25;;;0.00;;
13051;SDS011;6592;47.484;9.726;2024-02-23T00:49:13;1.42;;;0.10;;
13051;SDS011;6592;47.484;9.726;2024-02-23T00:51:41;0.00;;;0.00;;
13051;SDS011;6592;47.484;9.726;2024-02-23T00:54:10;0.00;;;0.00;;
13051;SDS011;6592;47.484;9.726;2024-02-23T00:56:38;0.15;;;0.00;;
13051;SDS011;6592;47.484;9.726;2024-02-23T00:59:17;0.82;;;0.00;;
13051;SDS011;6592;47.484;9.726;2024-02-23T01:01:46;0.00;;;0.00;;
13051;SDS011;6592;47.484;9.726;2024-02-23T01:04:15;0.30;;;0.00;;
13051;SDS011;6592;47.484;9.726;2024-02-23T01:06:43;0.20;;;0.00;;
13051;SDS011;6592;47.484;9.726;2024-02-23T01:09:11;0.00;;;0.00;;
13051;SDS011;6592;47.484;9.726;2024-02-23T01:11:39;0.43;;;0.10;;
13051;SDS011;6592;47.484;9.726;2024-02-23T01:14:08;0.05;;;0.00;;
13051;SDS011;6592;47.484;9.726;2024-02-23T01:16:36;0.22;;;0.00;;
13051;SDS011;6592;47.484;9.726;2024-02-23T01:19:05;0.00;;;0.00;;
13051;SDS011;6592;47.484;9.726;2024-02-23T01:21:34;0.05;;;0.00;;
13051;SDS011;6592;47.484;9.726;2024-02-23T01:24:02;0.38;;;0.00;;
13051;SDS011;6592;47.484;9.726;2024-02-23T01:26:31;0.00;;;0.00;;
13051;SDS011;6592;47.484;9.726;2024-02-23T01:29:00;0.13;;;0.00;;
13051;SDS011;6592;47.484;9.726;2024-02-23T01:31:29;0.05;;;0.00;;
13051;SDS011;6592;47.484;9.726;2024-02-23T01:33:58;0.17;;;0.00;;
13051;SDS011;6592;47.484;9.726;2024-02-23T01:36:27;0.00;;;0.00;;
13051;SDS011;6592;47.484;9.726;2024-02-23T01:38:56;0.00;;;0.00;;
13051;SDS011;6592;47.484;9.726;2024-02-23T01:41:24;0.10;;;0.00;;
13051;SDS011;6592;47.484;9.726;2024-02-23T01:43:52;0.22;;;0.00;;
13051;SDS011;6592;47.484;9.726;2024-02-23T01:46:20;0.03;;;0.00;;
13051;SDS011;6592;47.484;9.726;2024-02-23T01:48:49;0.50;;;0.00;;
13051;SDS011;6592;47.484;9.726;2024-02-23T01:51:18;1.17;;;0.00;;
13051;SDS011;6592;47.484;9.726;2024-02-23T01:53:48;0.00;;;0.00;;
13051;SDS011;6592;47.484;9.726;2024-02-23T01:56:17;0.00;;;0.00;;
13051;SDS011;6592;47.484;9.726;2024-02-23T01:58:46;0.08;;;0.00;;
13051;SDS011;6592;47.484;9.726;2024-02-23T02:01:15;0.35;;;0.00;;
13051;SDS011;6592;47.484;9.726;2024-02-23T02:03:43;0.15;;;0.00;;
13051;SDS011;6592;47.484;9.726;2024-02-23T02:06:11;0.00;;;0.00;;
13051;SDS011;6592;47.484;9.726;2024-02-23T02:08:40;0.43;;;0.00;;
13051;SDS011;6592;47.484;9.726;2024-02-23T02:11:10;0.50;;;0.00;;
13051;SDS011;6592;47.484;9.726;2024-02-23T02:13:38;0.45;;;0.00;;
13051;SDS011;6592;47.484;9.726;2024-02-23T02:16:06;0.63;;;0.00;;
13051;SDS011;6592;47.484;9.726;2024-02-23T02:18:35;0.85;;;0.10;;
13051;SDS011;6592;47.484;9.726;2024-02-23T02:21:03;0.00;;;0.00;;
13051;SDS011;6592;47.484;9.726;2024-02-23T02:23:31;0.00;;;0.00;;
13051;SDS011;6592;47.484;9.726;2024-02-23T02:26:00;0.20;;;0.10;;
13051;SDS011;6592;47.484;9.726;2024-02-23T02:28:29;0.50;;;0.00;;
13051;SDS011;6592;47.484;9.726;2024-02-23T02:30:58;0.15;;;0.00;;
13051;SDS011;6592;47.484;9.726;2024-02-23T02:33:27;1.65;;;0.10;;
13051;SDS011;6592;47.484;9.726;2024-02-23T02:35:55;0.20;;;0.00;;
13051;SDS011;6592;47.484;9.726;2024-02-23T02:38:23;0.28;;;0.00;;
13051;SDS011;6592;47.484;9.726;2024-02-23T02:40:52;0.08;;;0.00;;
13051;SDS011;6592;47.484;9.726;2024-02-23T02:43:20;0.30;;;0.00;;
13051;SDS011;6592;47.484;9.726;2024-02-23T02:45:50;0.55;;;0.00;;
13051;SDS011;6592;47.484;9.726;2024-02-23T02:48:18;0.10;;;0.00;;
13051;SDS011;6592;47.484;9.726;2024-02-23T02:50:46;0.00;;;0.00;;
13051;SDS011;6592;47.484;9.726;2024-02-23T02:53:19;0.00;;;0.00;;
13051;SDS011;6592;47.484;9.726;2024-02-23T02:55:47;0.00;;;0.00;;
13051;SDS011;6592;47.484;9.726;2024-02-23T02:58:16;0.20;;;0.00;;
13051;SDS011;6592;47.484;9.726;2024-02-23T03:00:44;0.75;;;0.03;;
13051;SDS011;6592;47.484;9.726;2024-02-23T03:03:13;0.57;;;0.10;;
13051;SDS011;6592;47.484;9.726;2024-02-23T03:05:42;0.50;;;0.03;;
13051;SDS011;6592;47.484;9.726;2024-02-23T03:08:10;0.25;;;0.00;;
13051;SDS011;6592;47.484;9.726;2024-02-23T03:10:38;0.17;;;0.10;;
13051;SDS011;6592;47.484;9.726;2024-02-23T03:13:07;0.28;;;0.10;;
13051;SDS011;6592;47.484;9.726;2024-02-23T03:15:35;0.47;;;0.10;;
13051;SDS011;6592;47.484;9.726;2024-02-23T03:18:03;0.90;;;0.10;;
13051;SDS011;6592;47.484;9.726;2024-02-23T03:20:33;1.20;;;0.10;;
13051;SDS011;6592;47.484;9.726;2024-02-23T03:23:02;0.00;;;0.00;;
13051;SDS011;6592;47.484;9.726;2024-02-23T03:25:30;0.00;;;0.00;;
13051;SDS011;6592;47.484;9.726;2024-02-23T03:27:58;3.47;;;0.20;;
13051;SDS011;6592;47.484;9.726;2024-02-23T03:30:27;1.27;;;0.10;;
13051;SDS011;6592;47.484;9.726;2024-02-23T03:32:55;0.52;;;0.10;;
13051;SDS011;6592;47.484;9.726;2024-02-23T03:35:23;0.28;;;0.10;;
13051;SDS011;6592;47.484;9.726;2024-02-23T03:37:53;0.30;;;0.00;;
13051;SDS011;6592;47.484;9.726;2024-02-23T03:40:21;0.82;;;0.15;;
13051;SDS011;6592;47.484;9.726;2024-02-23T03:42:49;0.65;;;0.05;;
13051;SDS011;6592;47.484;9.726;2024-02-23T03:45:18;0.68;;;0.10;;
13051;SDS011;6592;47.484;9.726;2024-02-23T03:47:46;0.20;;;0.00;;
13051;SDS011;6592;47.484;9.726;2024-02-23T03:50:15;0.77;;;0.20;;
13051;SDS011;6592;47.484;9.726;2024-02-23T03:52:43;1.02;;;0.20;;
13051;SDS011;6592;47.484;9.726;2024-02-23T03:55:13;0.77;;;0.20;;
13051;SDS011;6592;47.484;9.726;2024-02-23T03:57:41;1.35;;;0.30;;
13051;SDS011;6592;47.484;9.726;2024-02-23T04:00:13;1.98;;;0.30;;
13051;SDS011;6592;47.484;9.726;2024-02-23T04:02:41;0.75;;;0.20;;
13051;SDS011;6592;47.484;9.726;2024-02-23T04:05:10;0.45;;;0.13;;
13051;SDS011;6592;47.484;9.726;2024-02-23T04:07:38;0.32;;;0.10;;
13051;SDS011;6592;47.484;9.726;2024-02-23T04:10:06;1.08;;;0.10;;
13051;SDS011;6592;47.484;9.726;2024-02-23T04:12:37;0.80;;;0.10;;
13051;SDS011;6592;47.484;9.726;2024-02-23T04:15:06;0.68;;;0.25;;
13051;SDS011;6592;47.484;9.726;2024-02-23T04:17:34;0.22;;;0.00;;
13051;SDS011;6592;47.484;9.726;2024-02-23T04:20:05;0.73;;;0.20;;
13051;SDS011;6592;47.484;9.726;2024-02-23T04:22:34;0.63;;;0.10;;
13051;SDS011;6592;47.484;9.726;2024-02-23T04:25:03;1.17;;;0.10;;
13051;SDS011;6592;47.484;9.726;2024-02-23T04:27:32;0.32;;;0.13;;
13051;SDS011;6592;47.484;9.726;2024-02-23T04:30:02;1.15;;;0.10;;
13051;SDS011;6592;47.484;9.726;2024-02-23T04:32:31;0.00;;;0.00;;
13051;SDS011;6592;47.484;9.726;2024-02-23T04:34:59;0.45;;;0.10;;
13051;SDS011;6592;47.484;9.726;2024-02-23T04:37:28;1.50;;;0.10;;
13051;SDS011;6592;47.484;9.726;2024-02-23T04:40:00;0.47;;;0.10;;
13051;SDS011;6592;47.484;9.726;2024-02-23T04:42:30;1.08;;;0.10;;
13051;SDS011;6592;47.484;9.726;2024-02-23T04:44:58;0.47;;;0.10;;
13051;SDS011;6592;47.484;9.726;2024-02-23T04:47:28;0.20;;;0.10;;
13051;SDS011;6592;47.484;9.726;2024-02-23T04:49:57;0.20;;;0.03;;
13051;SDS011;6592;47.484;9.726;2024-02-23T04:52:26;0.95;;;0.10;;
13051;SDS011;6592;47.484;9.726;2024-02-23T04:54:54;0.30;;;0.10;;
13051;SDS011;6592;47.484;9.726;2024-02-23T04:57:22;3.22;;;0.20;;
13051;SDS011;6592;47.484;9.726;2024-02-23T04:59:50;0.80;;;0.10;;
13051;SDS011;6592;47.484;9.726;2024-02-23T05:02:18;0.40;;;0.10;;
13051;SDS011;6592;47.484;9.726;2024-02-23T05:04:48;1.08;;;0.20;;
13051;SDS011;6592;47.484;9.726;2024-02-23T05:07:16;1.55;;;0.40;;
13051;SDS011;6592;47.484;9.726;2024-02-23T05:09:45;0.85;;;0.25;;
13051;SDS011;6592;47.484;9.726;2024-02-23T05:12:13;0.77;;;0.30;;
13051;SDS011;6592;47.484;9.726;2024-02-23T05:14:41;0.68;;;0.28;;
13051;SDS011;6592;47.484;9.726;2024-02-23T05:17:09;2.50;;;0.40;;
13051;SDS011;6592;47.484;9.726;2024-02-23T05:19:38;0.65;;;0.20;;
13051;SDS011;6592;47.484;9.726;2024-02-23T05:22:07;0.40;;;0.17;;
13051;SDS011;6592;47.484;9.726;2024-02-23T05:24:35;0.70;;;0.25;;
13051;SDS011;6592;47.484;9.726;2024-02-23T05:27:04;0.40;;;0.10;;
13051;SDS011;6592;47.484;9.726;2024-02-23T05:29:32;0.55;;;0.17;;
13051;SDS011;6592;47.484;9.726;2024-02-23T05:32:00;1.50;;;0.50;;
13051;SDS011;6592;47.484;9.726;2024-02-23T05:34:29;1.75;;;0.45;;
13051;SDS011;6592;47.484;9.726;2024-02-23T05:36:58;2.08;;;0.40;;
13051;SDS011;6592;47.484;9.726;2024-02-23T05:39:27;1.50;;;0.50;;
13051;SDS011;6592;47.484;9.726;2024-02-23T05:41:55;1.95;;;0.70;;
13051;SDS011;6592;47.484;9.726;2024-02-23T05:44:26;1.55;;;0.57;;
13051;SDS011;6592;47.484;9.726;2024-02-23T05:46:55;2.10;;;0.57;;
13051;SDS011;6592;47.484;9.726;2024-02-23T05:49:23;1.30;;;0.45;;
13051;SDS011;6592;47.484;9.726;2024-02-23T05:51:52;1.17;;;0.30;;
13051;SDS011;6592;47.484;9.726;2024-02-23T05:54:21;1.27;;;0.40;;
13051;SDS011;6592;47.484;9.726;2024-02-23T05:56:51;2.13;;;0.50;;
13051;SDS011;6592;47.484;9.726;2024-02-23T05:59:19;1.77;;;0.40;;
13051;SDS011;6592;47.484;9.726;2024-02-23T06:01:48;1.23;;;0.50;;
13051;SDS011;6592;47.484;9.726;2024-02-23T06:04:18;0.70;;;0.30;;
13051;SDS011;6592;47.484;9.726;2024-02-23T06:06:46;1.73;;;0.40;;
13051;SDS011;6592;47.484;9.726;2024-02-23T06:09:15;0.80;;;0.38;;
13051;SDS011;6592;47.484;9.726;2024-02-23T06:11:43;1.50;;;0.30;;
13051;SDS011;6592;47.484;9.726;2024-02-23T06:14:13;1.23;;;0.35;;
13051;SDS011;6592;47.484;9.726;2024-02-23T06:16:41;1.60;;;0.47;;
13051;SDS011;6592;47.484;9.726;2024-02-23T06:19:10;2.13;;;0.60;;
13051;SDS011;6592;47.484;9.726;2024-02-23T06:21:38;1.67;;;0.60;;
13051;SDS011;6592;47.484;9.726;2024-02-23T06:24:06;1.70;;;0.50;;
13051;SDS011;6592;47.484;9.726;2024-02-23T06:26:35;2.47;;;0.50;;
13051;SDS011;6592;47.484;9.726;2024-02-23T06:29:03;2.20;;;0.93;;
13051;SDS011;6592;47.484;9.726;2024-02-23T06:31:33;3.78;;;0.80;;
13051;SDS011;6592;47.484;9.726;2024-02-23T06:34:02;2.38;;;0.70;;
13051;SDS011;6592;47.484;9.726;2024-02-23T06:36:30;1.35;;;0.70;;
13051;SDS011;6592;47.484;9.726;2024-02-23T06:38:58;1.77;;;0.70;;
13051;SDS011;6592;47.484;9.726;2024-02-23T06:41:27;3.25;;;0.70;;
13051;SDS011;6592;47.484;9.726;2024-02-23T06:43:55;3.22;;;0.70;;
13051;SDS011;6592;47.484;9.726;2024-02-23T06:46:23;3.55;;;0.60;;
13051;SDS011;6592;47.484;9.726;2024-02-23T06:48:53;2.00;;;0.65;;
13051;SDS011;6592;47.484;9.726;2024-02-23T06:51:22;0.75;;;0.40;;
13051;SDS011;6592;47.484;9.726;2024-02-23T06:53:50;1.80;;;0.65;;
13051;SDS011;6592;47.484;9.726;2024-02-23T06:56:18;1.95;;;0.70;;
13051;SDS011;6592;47.484;9.726;2024-02-23T06:58:47;2.65;;;0.90;;
13051;SDS011;6592;47.484;9.726;2024-02-23T07:01:15;2.88;;;1.05;;
13051;SDS011;6592;47.484;9.726;2024-02-23T07:03:43;2.63;;;0.80;;
13051;SDS011;6592;47.484;9.726;2024-02-23T07:06:13;3.10;;;0.70;;
13051;SDS011;6592;47.484;9.726;2024-02-23T07:08:45;1.70;;;0.63;;
13051;SDS011;6592;47.484;9.726;2024-02-23T07:11:13;1.35;;;0.50;;
13051;SDS011;6592;47.484;9.726;2024-02-23T07:13:42;1.55;;;0.60;;
13051;SDS011;6592;47.484;9.726;2024-02-23T07:16:11;2.55;;;0.90;;
13051;SDS011;6592;47.484;9.726;2024-02-23T07:18:40;2.53;;;0.85;;
13051;SDS011;6592;47.484;9.726;2024-02-23T07:21:08;5.40;;;1.92;;
13051;SDS011;6592;47.484;9.726;2024-02-23T07:23:38;3.55;;;0.80;;
13051;SDS011;6592;47.484;9.726;2024-02-23T07:26:06;3.67;;;1.55;;
13051;SDS011;6592;47.484;9.726;2024-02-23T07:28:35;4.65;;;2.30;;
13051;SDS011;6592;47.484;9.726;2024-02-23T07:31:03;3.33;;;1.58;;
13051;SDS011;6592;47.484;9.726;2024-02-23T07:33:31;5.43;;;2.40;;
13051;SDS011;6592;47.484;9.726;2024-02-23T07:36:00;5.88;;;3.38;;
13051;SDS011;6592;47.484;9.726;2024-02-23T07:38:28;2.65;;;1.25;;
13051;SDS011;6592;47.484;9.726;2024-02-23T07:40:58;2.88;;;1.00;;
13051;SDS011;6592;47.484;9.726;2024-02-23T07:43:26;1.98;;;1.20;;
13051;SDS011;6592;47.484;9.726;2024-02-23T07:45:55;4.03;;;1.80;;
13051;SDS011;6592;47.484;9.726;2024-02-23T07:48:24;2.80;;;1.00;;
13051;SDS011;6592;47.484;9.726;2024-02-23T07:50:52;2.75;;;0.88;;
13051;SDS011;6592;47.484;9.726;2024-02-23T07:53:21;2.70;;;1.20;;
13051;SDS011;6592;47.484;9.726;2024-02-23T07:55:49;1.75;;;0.85;;
13051;SDS011;6592;47.484;9.726;2024-02-23T07:58:19;2.28;;;0.82;;
13051;SDS011;6592;47.484;9.726;2024-02-23T08:00:47;2.60;;;1.40;;
13051;SDS011;6592;47.484;9.726;2024-02-23T08:03:16;2.60;;;1.08;;
13051;SDS011;6592;47.484;9.726;2024-02-23T08:05:44;2.70;;;1.27;;
13051;SDS011;6592;47.484;9.726;2024-02-23T08:08:12;3.72;;;1.13;;
13051;SDS011;6592;47.484;9.726;2024-02-23T08:10:40;2.55;;;1.00;;
13051;SDS011;6592;47.484;9.726;2024-02-23T08:13:09;4.15;;;1.90;;
13051;SDS011;6592;47.484;9.726;2024-02-23T08:15:38;5.10;;;1.52;;
13051;SDS011;6592;47.484;9.726;2024-02-23T08:18:07;5.63;;;2.08;;
13051;SDS011;6592;47.484;9.726;2024-02-23T08:20:35;5.50;;;1.42;;
13051;SDS011;6592;47.484;9.726;2024-02-23T08:23:03;4.00;;;2.40;;
13051;SDS011;6592;47.484;9.726;2024-02-23T08:25:32;4.82;;;2.50;;
13051;SDS011;6592;47.484;9.726;2024-02-23T08:28:00;3.38;;;1.45;;
13051;SDS011;6592;47.484;9.726;2024-02-23T08:30:28;2.85;;;1.20;;
13051;SDS011;6592;47.484;9.726;2024-02-23T08:32:58;4.05;;;1.17;;
13051;SDS011;6592;47.484;9.726;2024-02-23T08:35:26;2.95;;;1.10;;
13051;SDS011;6592;47.484;9.726;2024-02-23T08:37:54;2.22;;;0.65;;
13051;SDS011;6592;47.484;9.726;2024-02-23T08:40:23;3.58;;;1.35;;
13051;SDS011;6592;47.484;9.726;2024-02-23T08:42:51;3.65;;;1.27;;
13051;SDS011;6592;47.484;9.726;2024-02-23T08:45:19;3.55;;;1.20;;
13051;SDS011;6592;47.484;9.726;2024-02-23T08:47:47;2.50;;;1.23;;
13051;SDS011;6592;47.484;9.726;2024-02-23T08:50:17;2.97;;;1.10;;
13051;SDS011;6592;47.484;9.726;2024-02-23T08:52:45;2.33;;;0.80;;
13051;SDS011;6592;47.484;9.726;2024-02-23T08:55:13;2.63;;;0.93;;
13051;SDS011;6592;47.484;9.726;2024-02-23T08:57:42;17.73;;;7.75;;
13051;SDS011;6592;47.484;9.726;2024-02-23T09:00:11;8.57;;;4.07;;
13051;SDS011;6592;47.484;9.726;2024-02-23T09:02:43;3.28;;;1.40;;
13051;SDS011;6592;47.484;9.726;2024-02-23T09:05:12;2.80;;;1.40;;
13051;SDS011;6592;47.484;9.726;2024-02-23T09:07:41;4.25;;;2.47;;
13051;SDS011;6592;47.484;9.726;2024-02-23T09:10:11;3.83;;;1.70;;
13051;SDS011;6592;47.484;9.726;2024-02-23T09:12:40;3.70;;;1.27;;
13051;SDS011;6592;47.484;9.726;2024-02-23T09:15:08;3.95;;;1.45;;
13051;SDS011;6592;47.484;9.726;2024-02-23T09:17:37;3.42;;;1.20;;
13051;SDS011;6592;47.484;9.726;2024-02-23T09:20:08;5.93;;;1.05;;
13051;SDS011;6592;47.484;9.726;2024-02-23T09:22:37;4.65;;;1.27;;
13051;SDS011;6592;47.484;9.726;2024-02-23T09:25:07;4.30;;;1.20;;
13051;SDS011;6592;47.484;9.726;2024-02-23T09:27:36;3.72;;;1.38;;
13051;SDS011;6592;47.484;9.726;2024-02-23T09:30:10;6.30;;;1.20;;
13051;SDS011;6592;47.484;9.726;2024-02-23T09:32:39;2.67;;;1.30;;
13051;SDS011;6592;47.484;9.726;2024-02-23T09:35:08;2.47;;;1.15;;
13051;SDS011;6592;47.484;9.726;2024-02-23T09:37:36;2.95;;;1.17;;
13051;SDS011;6592;47.484;9.726;2024-02-23T09:40:05;3.45;;;1.15;;
13051;SDS011;6592;47.484;9.726;2024-02-23T09:42:36;3.33;;;1.27;;
13051;SDS011;6592;47.484;9.726;2024-02-23T09:45:05;3.58;;;1.27;;
13051;SDS011;6592;47.484;9.726;2024-02-23T09:47:35;4.68;;;1.48;;
13051;SDS011;6592;47.484;9.726;2024-02-23T09:50:04;4.35;;;1.20;;
13051;SDS011;6592;47.484;9.726;2024-02-23T09:52:33;2.78;;;1.05;;
13051;SDS011;6592;47.484;9.726;2024-02-23T09:55:02;2.78;;;1.00;;
13051;SDS011;6592;47.484;9.726;2024-02-23T09:57:32;3.00;;;1.08;;
13051;SDS011;6592;47.484;9.726;2024-02-23T10:00:02;3.40;;;1.00;;
13051;SDS011;6592;47.484;9.726;2024-02-23T10:02:32;4.18;;;0.95;;
13051;SDS011;6592;47.484;9.726;2024-02-23T10:05:03;1.73;;;0.77;;
13051;SDS011;6592;47.484;9.726;2024-02-23T10:07:32;2.05;;;0.90;;
13051;SDS011;6592;47.484;9.726;2024-02-23T10:10:01;3.38;;;1.10;;
13051;SDS011;6592;47.484;9.726;2024-02-23T10:12:32;3.10;;;1.10;;
13051;SDS011;6592;47.484;9.726;2024-02-23T10:15:02;5.25;;;1.00;;
13051;SDS011;6592;47.484;9.726;2024-02-23T10:17:31;3.33;;;1.33;;
13051;SDS011;6592;47.484;9.726;2024-02-23T10:20:02;3.30;;;1.00;;
13051;SDS011;6592;47.484;9.726;2024-02-23T10:22:31;3.90;;;1.50;;
13051;SDS011;6592;47.484;9.726;2024-02-23T10:24:59;5.28;;;1.27;;
13051;SDS011;6592;47.484;9.726;2024-02-23T10:27:27;4.20;;;1.30;;
13051;SDS011;6592;47.484;9.726;2024-02-23T10:29:57;6.22;;;1.30;;
13051;SDS011;6592;47.484;9.726;2024-02-23T10:32:25;3.45;;;1.23;;
13051;SDS011;6592;47.484;9.726;2024-02-23T10:34:58;4.00;;;1.40;;
13051;SDS011;6592;47.484;9.726;2024-02-23T10:37:30;3.55;;;1.20;;
13051;SDS011;6592;47.484;9.726;2024-02-23T10:40:00;2.92;;;1.15;;
13051;SDS011;6592;47.484;9.726;2024-02-23T10:42:30;4.35;;;1.35;;
13051;SDS011;6592;47.484;9.726;2024-02-23T10:45:05;6.40;;;1.60;;
13051;SDS011;6592;47.484;9.726;2024-02-23T10:47:34;6.32;;;1.63;;
13051;SDS011;6592;47.484;9.726;2024-02-23T10:50:04;4.03;;;1.52;;
13051;SDS011;6592;47.484;9.726;2024-02-23T10:52:35;4.40;;;1.10;;
13051;SDS011;6592;47.484;9.726;2024-02-23T10:55:03;2.40;;;1.02;;
13051;SDS011;6592;47.484;9.726;2024-02-23T10:57:34;2.53;;;0.90;;
13051;SDS011;6592;47.484;9.726;2024-02-23T11:00:03;3.45;;;1.38;;
13051;SDS011;6592;47.484;9.726;2024-02-23T11:02:38;6.65;;;1.10;;
13051;SDS011;6592;47.484;9.726;2024-02-23T11:05:08;3.58;;;1.08;;
13051;SDS011;6592;47.484;9.726;2024-02-23T11:07:39;1.80;;;0.80;;
13051;SDS011;6592;47.484;9.726;2024-02-23T11:10:08;2.65;;;0.95;;
13051;SDS011;6592;47.484;9.726;2024-02-23T11:12:40;2.35;;;1.08;;
13051;SDS011;6592;47.484;9.726;2024-02-23T11:15:10;4.95;;;1.40;;
13051;SDS011;6592;47.484;9.726;2024-02-23T11:17:54;3.72;;;1.27;;
13051;SDS011;6592;47.484;9.726;2024-02-23T11:20:23;3.58;;;1.48;;
13051;SDS011;6592;47.484;9.726;2024-02-23T11:22:56;3.83;;;1.58;;
13051;SDS011;6592;47.484;9.726;2024-02-23T11:25:26;6.60;;;1.60;;
13051;SDS011;6592;47.484;9.726;2024-02-23T11:27:55;3.42;;;1.20;;
13051;SDS011;6592;47.484;9.726;2024-02-23T11:30:25;2.70;;;1.10;;
13051;SDS011;6592;47.484;9.726;2024-02-23T11:32:57;2.28;;;0.95;;
13051;SDS011;6592;47.484;9.726;2024-02-23T11:35:28;3.10;;;1.13;;
13051;SDS011;6592;47.484;9.726;2024-02-23T11:37:56;5.80;;;0.90;;
13051;SDS011;6592;47.484;9.726;2024-02-23T11:40:26;3.55;;;1.10;;
13051;SDS011;6592;47.484;9.726;2024-02-23T11:42:54;5.03;;;1.00;;
13051;SDS011;6592;47.484;9.726;2024-02-23T11:45:24;3.88;;;1.17;;
13051;SDS011;6592;47.484;9.726;2024-02-23T11:47:53;3.10;;;1.13;;
13051;SDS011;6592;47.484;9.726;2024-02-23T11:50:21;3.83;;;1.20;;
13051;SDS011;6592;47.484;9.726;2024-02-23T11:52:49;3.20;;;1.20;;
13051;SDS011;6592;47.484;9.726;2024-02-23T11:55:18;2.38;;;0.73;;
13051;SDS011;6592;47.484;9.726;2024-02-23T11:57:49;2.92;;;0.90;;
13051;SDS011;6592;47.484;9.726;2024-02-23T12:00:32;3.05;;;1.00;;
13051;SDS011;6592;47.484;9.726;2024-02-23T12:03:02;3.10;;;1.05;;
13051;SDS011;6592;47.484;9.726;2024-02-23T12:05:31;2.83;;;1.08;;
13051;SDS011;6592;47.484;9.726;2024-02-23T12:08:00;2.20;;;0.90;;
13051;SDS011;6592;47.484;9.726;2024-02-23T12:10:29;4.03;;;1.10;;
13051;SDS011;6592;47.484;9.726;2024-02-23T12:12:58;3.58;;;1.20;;
13051;SDS011;6592;47.484;9.726;2024-02-23T12:15:26;2.65;;;0.90;;
13051;SDS011;6592;47.484;9.726;2024-02-23T12:17:58;5.78;;;1.00;;
13051;SDS011;6592;47.484;9.726;2024-02-23T12:20:27;3.25;;;1.13;;
13051;SDS011;6592;47.484;9.726;2024-02-23T12:22:56;2.05;;;1.08;;
13051;SDS011;6592;47.484;9.726;2024-02-23T12:25:24;2.67;;;1.00;;
13051;SDS011;6592;47.484;9.726;2024-02-23T12:27:56;3.35;;;1.00;;
13051;SDS011;6592;47.484;9.726;2024-02-23T12:30:24;3.38;;;1.50;;
13051;SDS011;6592;47.484;9.726;2024-02-23T12:33:04;2.92;;;0.70;;
13051;SDS011;6592;47.484;9.726;2024-02-23T12:35:34;3.58;;;1.20;;
13051;SDS011;6592;47.484;9.726;2024-02-23T12:38:02;3.08;;;1.17;;
13051;SDS011;6592;47.484;9.726;2024-02-23T12:40:31;6.82;;;1.90;;
13051;SDS011;6592;47.484;9.726;2024-02-23T12:42:59;3.05;;;1.20;;
13051;SDS011;6592;47.484;9.726;2024-02-23T12:45:27;3.00;;;1.10;;
13051;SDS011;6592;47.484;9.726;2024-02-23T12:47:56;4.35;;;0.98;;
13051;SDS011;6592;47.484;9.726;2024-02-23T12:50:25;1.70;;;0.82;;
13051;SDS011;6592;47.484;9.726;2024-02-23T12:52:58;4.25;;;0.93;;
13051;SDS011;6592;47.484;9.726;2024-02-23T12:55:27;3.17;;;0.80;;
13051;SDS011;6592;47.484;9.726;2024-02-23T12:57:55;2.45;;;0.65;;
13051;SDS011;6592;47.484;9.726;2024-02-23T13:00:23;2.45;;;0.95;;
13051;SDS011;6592;47.484;9.726;2024-02-23T13:02:51;4.72;;;1.20;;
13051;SDS011;6592;47.484;9.726;2024-02-23T13:05:20;5.70;;;1.08;;
13051;SDS011;6592;47.484;9.726;2024-02-23T13:07:50;2.35;;;0.70;;
13051;SDS011;6592;47.484;9.726;2024-02-23T13:10:18;2.65;;;0.90;;
13051;SDS011;6592;47.484;9.726;2024-02-23T13:12:46;2.08;;;0.88;;
13051;SDS011;6592;47.484;9.726;2024-02-23T13:15:16;1.98;;;0.77;;
13051;SDS011;6592;47.484;9.726;2024-02-23T13:17:47;2.72;;;1.02;;
13051;SDS011;6592;47.484;9.726;2024-02-23T13:20:15;5.20;;;1.35;;
13051;SDS011;6592;47.484;9.726;2024-02-23T13:22:45;2.88;;;1.00;;
13051;SDS011;6592;47.484;9.726;2024-02-23T13:25:15;4.35;;;1.23;;
13051;SDS011;6592;47.484;9.726;2024-02-23T13:27:43;3.45;;;0.90;;
13051;SDS011;6592;47.484;9.726;2024-02-23T13:30:12;4.80;;;1.30;;
13051;SDS011;6592;47.484;9.726;2024-02-23T13:32:40;4.80;;;1.30;;
13051;SDS011;6592;47.484;9.726;2024-02-23T13:35:09;1.85;;;0.70;;
13051;SDS011;6592;47.484;9.726;2024-02-23T13:37:37;2.55;;;0.85;;
13051;SDS011;6592;47.484;9.726;2024-02-23T13:40:06;2.42;;;1.10;;
13051;SDS011;6592;47.484;9.726;2024-02-23T13:42:37;3.95;;;0.95;;
13051;SDS011;6592;47.484;9.726;2024-02-23T13:45:06;4.63;;;1.30;;
13051;SDS011;6592;47.484;9.726;2024-02-23T13:47:35;3.83;;;1.60;;
13051;SDS011;6592;47.484;9.726;2024-02-23T13:50:04;2.85;;;1.30;;
13051;SDS011;6592;47.484;9.726;2024-02-23T13:52:33;2.80;;;1.10;;
13051;SDS011;6592;47.484;9.726;2024-02-23T13:55:01;2.67;;;0.75;;
13051;SDS011;6592;47.484;9.726;2024-02-23T13:57:29;2.40;;;1.00;;
13051;SDS011;6592;47.484;9.726;2024-02-23T14:00:00;2.75;;;0.60;;
13051;SDS011;6592;47.484;9.726;2024-02-23T14:02:29;2.53;;;0.70;;
13051;SDS011;6592;47.484;9.726;2024-02-23T14:05:00;2.00;;;0.70;;
13051;SDS011;6592;47.484;9.726;2024-02-23T14:07:33;1.55;;;0.40;;
13051;SDS011;6592;47.484;9.726;2024-02-23T14:10:01;1.40;;;0.60;;
13051;SDS011;6592;47.484;9.726;2024-02-23T14:12:30;1.63;;;0.50;;
13051;SDS011;6592;47.484;9.726;2024-02-23T14:15:00;2.17;;;0.60;;
13051;SDS011;6592;47.484;9.726;2024-02-23T14:17:28;1.73;;;0.60;;
13051;SDS011;6592;47.484;9.726;2024-02-23T14:19:56;2.03;;;0.60;;
13051;SDS011;6592;47.484;9.726;2024-02-23T14:22:25;1.63;;;0.73;;
13051;SDS011;6592;47.484;9.726;2024-02-23T14:24:54;1.92;;;0.60;;
13051;SDS011;6592;47.484;9.726;2024-02-23T14:27:23;2.40;;;0.35;;
13051;SDS011;6592;47.484;9.726;2024-02-23T14:29:55;2.15;;;0.80;;
13051;SDS011;6592;47.484;9.726;2024-02-23T14:32:25;1.52;;;0.60;;
13051;SDS011;6592;47.484;9.726;2024-02-23T14:34:53;1.75;;;0.60;;
13051;SDS011;6592;47.484;9.726;2024-02-23T14:37:24;1.15;;;0.50;;
13051;SDS011;6592;47.484;9.726;2024-02-23T14:39:52;1.23;;;0.40;;
13051;SDS011;6592;47.484;9.726;2024-02-23T14:42:20;0.98;;;0.40;;
13051;SDS011;6592;47.484;9.726;2024-02-23T14:44:49;2.83;;;0.60;;
13051;SDS011;6592;47.484;9.726;2024-02-23T14:47:17;1.02;;;0.50;;
13051;SDS011;6592;47.484;9.726;2024-02-23T14:49:56;1.95;;;0.40;;
13051;SDS011;6592;47.484;9.726;2024-02-23T14:52:24;2.45;;;0.40;;
13051;SDS011;6592;47.484;9.726;2024-02-23T14:54:52;1.15;;;0.50;;
13051;SDS011;6592;47.484;9.726;2024-02-23T14:57:20;1.10;;;0.30;;
13051;SDS011;6592;47.484;9.726;2024-02-23T14:59:49;1.35;;;0.40;;
13051;SDS011;6592;47.484;9.726;2024-02-23T15:02:18;1.00;;;0.40;;
13051;SDS011;6592;47.484;9.726;2024-02-23T15:04:47;2.50;;;0.63;;
13051;SDS011;6592;47.484;9.726;2024-02-23T15:07:17;1.70;;;0.43;;
13051;SDS011;6592;47.484;9.726;2024-02-23T15:09:46;1.15;;;0.52;;
13051;SDS011;6592;47.484;9.726;2024-02-23T15:12:14;3.22;;;0.60;;